Time,TemperatureF,DewpointF,PressureIn,WindDirection,WindDirectionDegrees,WindSpeedMPH,WindSpeedGustMPH,Humidity,HourlyPrecipIn,Conditions,Clouds,dailyrainin,SoftwareType,DateUTC
2013-02-11 09:56:00,36.0,36.0,29.83,East,98,0.0,0.0,100,-99.99,,,-99.99,VWS V14.01,2013-02-11 14:56:00,
2013-02-11 10:01:00,36.1,36.1,29.83,East,98,0.0,0.0,100,-99.99,,,-99.99,VWS V14.01,2013-02-11 15:01:00,
2013-02-11 10:06:00,36.2,36.2,29.83,East,98,0.0,0.0,100,-99.99,,,-99.99,VWS V14.01,2013-02-11 15:06:00,
2013-02-11 10:11:00,36.3,36.3,29.82,East,98,0.0,0.0,100,-99.99,,,-99.99,VWS V14.01,2013-02-11 15:11:00,
2013-02-11 10:16:00,36.9,36.9,29.82,East,98,0.0,0.0,100,-99.99,,,-99.99,VWS V14.01,2013-02-11 15:16:00,
2013-02-11 10:21:00,37.3,37.3,29.82,East,98,0.0,0.0,100,-99.99,,,-99.99,VWS V14.01,2013-02-11 15:21:00,
2013-02-11 10:26:00,37.5,37.5,29.82,East,98,0.0,0.0,100,-99.99,,,-99.99,VWS V14.01,2013-02-11 15:26:00,
2013-02-11 10:31:00,37.8,37.8,29.81,East,98,0.0,0.0,100,-99.99,,,-99.99,VWS V14.01,2013-02-11 15:31:00,
2013-02-11 10:36:00,38.2,38.2,29.81,East,98,0.0,0.0,100,-99.99,,,-99.99,VWS V14.01,2013-02-11 15:36:00,
2013-02-11 10:41:00,38.4,38.4,29.81,East,98,0.0,0.0,100,-99.99,,,-99.99,VWS V14.01,2013-02-11 15:41:00,
2013-02-11 10:46:00,38.8,38.8,29.80,East,98,0.0,0.0,100,-99.99,,,-99.99,VWS V14.01,2013-02-11 15:46:00,
2013-02-11 10:51:00,39.5,39.5,29.79,East,98,0.0,0.0,100,-99.99,,,-99.99,VWS V14.01,2013-02-11 15:51:00,
2013-02-11 10:56:00,40.1,40.1,29.79,East,98,0.0,0.0,100,-99.99,,,-99.99,VWS V14.01,2013-02-11 15:56:00,
2013-02-11 11:01:00,40.6,40.5,29.79,ESE,115,0.0,0.0,100,-99.99,,,-99.99,VWS V14.01,2013-02-11 16:01:00,
2013-02-11 11:06:00,41.2,40.9,29.78,ESE,115,0.0,0.0,99,-99.99,,,-99.99,VWS V14.01,2013-02-11 16:06:00,
2013-02-11 11:11:00,41.6,41.0,29.77,East,83,0.0,0.0,98,-99.99,,,-99.99,VWS V14.01,2013-02-11 16:11:00,
2013-02-11 11:16:00,42.3,41.2,29.78,East,83,0.0,0.0,96,-99.99,,,-99.99,VWS V14.01,2013-02-11 16:16:00,
2013-02-11 11:21:00,42.8,41.4,29.77,East,83,0.0,0.0,95,-99.99,,,-99.99,VWS V14.01,2013-02-11 16:21:00,
2013-02-11 11:26:00,43.7,41.5,29.76,SE,124,3.3,6.0,92,-99.99,,,-99.99,VWS V14.01,2013-02-11 16:26:00,
2013-02-11 11:31:00,44.6,41.4,29.76,ENE,72,0.0,5.2,88,-99.99,,,-99.99,VWS V14.01,2013-02-11 16:31:00,
2013-02-11 11:35:00,45.5,41.7,29.75,East,100,0.0,4.7,86,-99.99,,,-99.99,VWS V14.01,2013-02-11 16:35:00,
2013-02-11 11:40:00,46.5,41.9,29.74,North,359,0.0,10.1,84,-99.99,,,-99.99,VWS V14.01,2013-02-11 16:40:00,
2013-02-11 11:45:00,48.1,42.9,29.74,SE,135,4.3,6.7,82,-99.99,,,-99.99,VWS V14.01,2013-02-11 16:45:00,
2013-02-11 11:50:00,49.8,43.1,29.74,South,179,4.2,4.9,78,-99.99,,,-99.99,VWS V14.01,2013-02-11 16:50:00,
2013-02-11 11:55:00,51.0,43.3,29.74,SSE,155,0.0,0.0,75,-99.99,,,-99.99,VWS V14.01,2013-02-11 16:55:00,
2013-02-11 12:00:00,52.2,43.6,29.74,ESE,118,3.2,6.0,72,-99.99,,,-99.99,VWS V14.01,2013-02-11 17:00:00,
2013-02-11 12:05:00,53.1,42.1,29.74,WNW,287,0.0,0.0,66,-99.99,,,-99.99,VWS V14.01,2013-02-11 17:05:00,
2013-02-11 12:10:00,53.8,41.8,29.73,WNW,287,0.0,0.0,64,-99.99,,,-99.99,VWS V14.01,2013-02-11 17:10:00,
2013-02-11 12:15:00,54.6,42.0,29.73,NW,316,0.0,0.0,62,-99.99,,,-99.99,VWS V14.01,2013-02-11 17:15:00,
2013-02-11 12:20:00,55.1,42.1,29.73,NW,316,0.0,0.0,62,-99.99,,,-99.99,VWS V14.01,2013-02-11 17:20:00,
2013-02-11 12:25:00,55.3,40.5,29.72,North,359,6.1,7.0,57,-99.99,,,-99.99,VWS V14.01,2013-02-11 17:25:00,
2013-02-11 12:30:00,55.5,39.0,29.72,NNW,329,4.4,9.7,54,-99.99,,,-99.99,VWS V14.01,2013-02-11 17:30:00,
2013-02-11 12:35:00,55.9,38.9,29.72,NW,308,3.2,8.1,53,-99.99,,,-99.99,VWS V14.01,2013-02-11 17:35:00,
2013-02-11 12:40:00,56.3,38.1,29.72,NW,315,7.3,7.3,50,-99.99,,,-99.99,VWS V14.01,2013-02-11 17:40:00,
2013-02-11 12:45:00,56.6,38.4,29.72,North,359,6.8,9.1,50,-99.99,,,-99.99,VWS V14.01,2013-02-11 17:45:00,
2013-02-11 12:50:00,57.0,37.8,29.71,NW,325,5.2,5.2,49,-99.99,,,-99.99,VWS V14.01,2013-02-11 17:50:00,
2013-02-11 12:55:00,56.8,36.9,29.71,NW,312,5.3,15.3,47,-99.99,,,-99.99,VWS V14.01,2013-02-11 17:55:00,
2013-02-11 13:00:00,57.0,37.3,29.70,North,359,7.2,13.7,48,-99.99,,,-99.99,VWS V14.01,2013-02-11 18:00:00,
2013-02-11 13:05:00,57.2,37.2,29.71,WNW,295,6.8,12.6,47,-99.99,,,-99.99,VWS V14.01,2013-02-11 18:05:00,
2013-02-11 13:10:00,57.7,37.2,29.70,NW,325,10.5,14.4,46,-99.99,,,-99.99,VWS V14.01,2013-02-11 18:10:00,
2013-02-11 13:15:00,58.4,38.3,29.70,West,277,0.0,3.4,47,-99.99,,,-99.99,VWS V14.01,2013-02-11 18:15:00,
2013-02-11 13:20:00,58.3,37.3,29.70,WNW,300,9.9,14.8,46,-99.99,,,-99.99,VWS V14.01,2013-02-11 18:20:00,
2013-02-11 13:25:00,58.4,37.6,29.70,WNW,297,8.3,9.8,46,-99.99,,,-99.99,VWS V14.01,2013-02-11 18:25:00,
2013-02-11 13:30:00,58.8,37.2,29.69,NW,311,0.0,6.8,44,-99.99,,,-99.99,VWS V14.01,2013-02-11 18:30:00,
2013-02-11 13:35:00,58.6,36.8,29.70,WNW,301,9.0,16.0,44,-99.99,,,-99.99,VWS V14.01,2013-02-11 18:35:00,
2013-02-11 13:40:00,58.7,36.6,29.69,NW,325,5.3,11.6,44,-99.99,,,-99.99,VWS V14.01,2013-02-11 18:40:00,
2013-02-11 13:45:00,59.2,36.8,29.69,WNW,297,0.0,6.1,43,-99.99,,,-99.99,VWS V14.01,2013-02-11 18:45:00,
2013-02-11 13:50:00,59.4,36.4,29.68,NNW,339,0.0,12.1,42,-99.99,,,-99.99,VWS V14.01,2013-02-11 18:50:00,
2013-02-11 13:55:00,59.5,35.4,29.68,NNW,333,9.6,11.4,40,-99.99,,,-99.99,VWS V14.01,2013-02-11 18:55:00,
2013-02-11 14:00:00,59.6,35.2,29.68,North,0,0.0,0.0,40,-99.99,,,-99.99,VWS V14.01,2013-02-11 19:00:00,
2013-02-11 14:05:00,59.5,33.8,29.68,ESE,121,0.0,8.9,38,-99.99,,,-99.99,VWS V14.01,2013-02-11 19:05:00,
2013-02-11 14:10:00,59.5,33.4,29.68,South,174,0.0,17.2,37,-99.99,,,-99.99,VWS V14.01,2013-02-11 19:10:00,
2013-02-11 14:15:00,59.4,33.9,29.67,West,263,0.0,6.8,38,-99.99,,,-99.99,VWS V14.01,2013-02-11 19:15:00,
2013-02-11 14:20:00,59.5,33.8,29.67,ESE,118,5.2,8.0,38,-99.99,,,-99.99,VWS V14.01,2013-02-11 19:20:00,
2013-02-11 14:25:00,59.5,32.6,29.67,SW,236,0.0,6.8,36,-99.99,,,-99.99,VWS V14.01,2013-02-11 19:25:00,
2013-02-11 14:30:00,59.5,33.8,29.67,WSW,255,0.0,0.0,38,-99.99,,,-99.99,VWS V14.01,2013-02-11 19:30:00,
2013-02-11 14:35:00,59.4,32.3,29.67,WNW,291,3.0,8.8,36,-99.99,,,-99.99,VWS V14.01,2013-02-11 19:35:00,
2013-02-11 14:40:00,59.4,32.6,29.68,NNE,15,0.0,12.1,36,-99.99,,,-99.99,VWS V14.01,2013-02-11 19:40:00,
2013-02-11 14:45:00,59.3,31.2,29.68,West,260,3.4,6.6,34,-99.99,,,-99.99,VWS V14.01,2013-02-11 19:45:00,
2013-02-11 14:50:00,59.2,30.1,29.68,NW,314,6.0,13.3,33,-99.99,,,-99.99,VWS V14.01,2013-02-11 19:50:00,
2013-02-11 14:55:00,58.8,28.8,29.68,WSW,240,0.0,5.4,32,-99.99,,,-99.99,VWS V14.01,2013-02-11 19:55:00,
2013-02-11 15:00:00,58.9,29.4,29.68,NNW,343,9.5,12.1,32,-99.99,,,-99.99,VWS V14.01,2013-02-11 20:00:00,
2013-02-11 15:05:00,58.9,29.4,29.67,SW,215,0.0,4.1,32,-99.99,,,-99.99,VWS V14.01,2013-02-11 20:05:00,
2013-02-11 15:10:00,59.1,30.4,29.67,West,270,0.0,6.1,34,-99.99,,,-99.99,VWS V14.01,2013-02-11 20:10:00,
2013-02-11 15:15:00,58.9,30.1,29.68,NW,304,17.6,17.6,33,-99.99,,,-99.99,VWS V14.01,2013-02-11 20:15:00,
2013-02-11 15:20:00,58.7,28.7,29.68,WNW,290,4.6,7.3,32,-99.99,,,-99.99,VWS V14.01,2013-02-11 20:20:00,
2013-02-11 15:25:00,58.6,28.6,29.68,SW,233,0.0,0.0,32,-99.99,,,-99.99,VWS V14.01,2013-02-11 20:25:00,
2013-02-11 15:30:00,58.3,28.5,29.69,NNE,22,7.8,9.5,32,-99.99,,,-99.99,VWS V14.01,2013-02-11 20:30:00,
2013-02-11 15:35:00,58.3,29.0,29.68,SW,217,8.3,12.9,32,-99.99,,,-99.99,VWS V14.01,2013-02-11 20:35:00,
2013-02-11 15:40:00,58.2,29.5,29.68,WSW,240,0.0,5.7,33,-99.99,,,-99.99,VWS V14.01,2013-02-11 20:40:00,
2013-02-11 15:45:00,58.2,29.5,29.69,West,263,6.9,10.6,33,-99.99,,,-99.99,VWS V14.01,2013-02-11 20:45:00,
2013-02-11 15:50:00,57.9,29.6,29.68,West,280,5.9,9.1,34,-99.99,,,-99.99,VWS V14.01,2013-02-11 20:50:00,
2013-02-11 15:55:00,57.6,30.2,29.69,NW,318,11.9,13.0,35,-99.99,,,-99.99,VWS V14.01,2013-02-11 20:55:00,
2013-02-11 16:00:00,57.3,29.6,29.68,SW,231,0.0,3.2,35,-99.99,,,-99.99,VWS V14.01,2013-02-11 21:00:00,
2013-02-11 16:05:00,57.0,29.6,29.67,SE,141,6.4,10.1,35,-99.99,,,-99.99,VWS V14.01,2013-02-11 21:05:00,
2013-02-11 16:10:00,57.0,30.1,29.68,West,280,7.8,9.8,36,-99.99,,,-99.99,VWS V14.01,2013-02-11 21:10:00,
2013-02-11 16:15:00,56.8,30.3,29.68,NW,323,9.8,9.8,36,-99.99,,,-99.99,VWS V14.01,2013-02-11 21:15:00,
2013-02-11 16:20:00,56.7,29.7,29.68,WNW,300,4.3,4.3,36,-99.99,,,-99.99,VWS V14.01,2013-02-11 21:20:00,
2013-02-11 16:25:00,56.5,29.6,29.68,WNW,285,3.0,3.4,36,-99.99,,,-99.99,VWS V14.01,2013-02-11 21:25:00,
2013-02-11 16:30:00,56.5,30.2,29.68,WNW,301,5.2,9.8,36,-99.99,,,-99.99,VWS V14.01,2013-02-11 21:30:00,
2013-02-11 16:35:00,56.4,29.9,29.68,West,280,6.4,8.2,36,-99.99,,,-99.99,VWS V14.01,2013-02-11 21:35:00,
2013-02-11 16:40:00,56.2,30.0,29.68,West,270,5.7,8.5,36,-99.99,,,-99.99,VWS V14.01,2013-02-11 21:40:00,
2013-02-11 16:45:00,56.1,29.7,29.68,WNW,295,0.0,0.0,36,-99.99,,,-99.99,VWS V14.01,2013-02-11 21:45:00,
2013-02-11 16:50:00,55.8,30.0,29.68,NW,304,0.0,0.0,37,-99.99,,,-99.99,VWS V14.01,2013-02-11 21:50:00,
2013-02-11 16:55:00,55.6,29.9,29.68,SW,228,0.0,6.0,37,-99.99,,,-99.99,VWS V14.01,2013-02-11 21:55:00,
2013-02-11 17:00:00,55.5,30.1,29.68,NW,311,0.0,0.0,38,-99.99,,,-99.99,VWS V14.01,2013-02-11 22:00:00,
2013-02-11 17:05:00,55.3,29.8,29.68,WSW,246,0.0,0.0,38,-99.99,,,-99.99,VWS V14.01,2013-02-11 22:05:00,
2013-02-11 17:10:00,55.1,29.5,29.69,NW,322,4.6,5.5,37,-99.99,,,-99.99,VWS V14.01,2013-02-11 22:10:00,
2013-02-11 17:15:00,54.9,29.1,29.69,West,262,8.7,9.4,37,-99.99,,,-99.99,VWS V14.01,2013-02-11 22:15:00,
2013-02-11 17:20:00,54.9,29.3,29.69,WNW,302,0.0,0.0,37,-99.99,,,-99.99,VWS V14.01,2013-02-11 22:20:00,
2013-02-11 17:25:00,54.5,29.0,29.69,NNE,25,3.3,5.8,37,-99.99,,,-99.99,VWS V14.01,2013-02-11 22:25:00,
2013-02-11 17:30:00,54.2,28.2,29.69,West,263,0.0,7.5,36,-99.99,,,-99.99,VWS V14.01,2013-02-11 22:30:00,
2013-02-11 17:35:00,54.2,28.5,29.69,WSW,253,4.7,12.2,37,-99.99,,,-99.99,VWS V14.01,2013-02-11 22:35:00,
2013-02-11 17:40:00,54.2,29.3,29.69,NNW,343,0.0,0.0,38,-99.99,,,-99.99,VWS V14.01,2013-02-11 22:40:00,
2013-02-11 17:45:00,54.0,29.2,29.70,WSW,252,0.0,0.0,38,-99.99,,,-99.99,VWS V14.01,2013-02-11 22:45:00,
2013-02-11 17:50:00,53.6,29.4,29.70,West,278,0.0,0.0,39,-99.99,,,-99.99,VWS V14.01,2013-02-11 22:50:00,
2013-02-11 17:55:00,53.1,29.4,29.71,West,267,0.0,0.0,40,-99.99,,,-99.99,VWS V14.01,2013-02-11 22:55:00,
2013-02-11 18:00:00,52.7,29.3,29.71,WSW,252,0.0,0.0,40,-99.99,,,-99.99,VWS V14.01,2013-02-11 23:00:00,
2013-02-11 18:05:00,52.3,29.3,29.71,West,278,4.6,6.3,41,-99.99,,,-99.99,VWS V14.01,2013-02-11 23:05:00,
2013-02-11 18:10:00,52.1,29.7,29.72,NW,312,7.1,9.1,42,-99.99,,,-99.99,VWS V14.01,2013-02-11 23:10:00,
2013-02-11 18:15:00,51.8,29.4,29.72,West,278,3.4,5.3,42,-99.99,,,-99.99,VWS V14.01,2013-02-11 23:15:00,
2013-02-11 18:20:00,51.2,32.0,29.74,West,278,6.7,11.9,48,-99.99,,,-99.99,VWS V14.01,2013-02-11 23:20:00,
2013-02-11 18:25:00,48.8,33.3,29.74,North,359,6.3,13.8,55,-99.99,,,-99.99,VWS V14.01,2013-02-11 23:25:00,
2013-02-11 18:30:00,47.7,33.6,29.75,NW,326,0.0,11.6,58,-99.99,,,-99.99,VWS V14.01,2013-02-11 23:30:00,
2013-02-11 18:35:00,46.8,33.6,29.76,West,266,11.9,11.9,60,-99.99,,,-99.99,VWS V14.01,2013-02-11 23:35:00,
2013-02-11 18:40:00,46.2,33.4,29.76,NW,312,8.4,8.5,61,-99.99,,,-99.99,VWS V14.01,2013-02-11 23:40:00,
2013-02-11 18:45:00,45.9,33.0,29.76,NNW,332,0.0,0.0,60,-99.99,,,-99.99,VWS V14.01,2013-02-11 23:45:00,
2013-02-11 18:50:00,45.8,32.1,29.77,SSW,205,5.8,14.9,59,-99.99,,,-99.99,VWS V14.01,2013-02-11 23:50:00,
2013-02-11 18:55:00,45.9,31.9,29.78,WNW,298,12.1,16.7,58,-99.99,,,-99.99,VWS V14.01,2013-02-11 23:55:00,
2013-02-11 19:00:00,45.9,31.6,29.78,SW,233,4.7,14.9,57,-99.99,,,-99.99,VWS V14.01,2013-02-12 00:00:00,
2013-02-11 19:04:00,45.8,31.6,29.78,NW,311,6.8,11.5,57,-99.99,,,-99.99,VWS V14.01,2013-02-12 00:04:00,
2013-02-11 19:09:00,45.4,31.6,29.78,NW,323,5.4,13.8,58,-99.99,,,-99.99,VWS V14.01,2013-02-12 00:09:00,
2013-02-11 19:14:00,45.2,31.6,29.79,WNW,287,5.5,8.7,59,-99.99,,,-99.99,VWS V14.01,2013-02-12 00:14:00,
2013-02-11 19:19:00,44.5,31.7,29.80,WNW,290,5.6,21.1,60,-99.99,,,-99.99,VWS V14.01,2013-02-12 00:19:00,
2013-02-11 19:24:00,44.1,31.3,29.81,NW,321,8.2,17.6,60,-99.99,,,-99.99,VWS V14.01,2013-02-12 00:24:00,
2013-02-11 19:29:00,43.2,30.9,29.82,West,280,9.2,21.5,62,-99.99,,,-99.99,VWS V14.01,2013-02-12 00:29:00,
2013-02-11 19:34:00,42.3,30.5,29.82,NNW,346,11.2,15.3,63,-99.99,,,-99.99,VWS V14.01,2013-02-12 00:34:00,
2013-02-11 19:39:00,41.4,30.0,29.83,WNW,284,5.6,16.2,64,-99.99,,,-99.99,VWS V14.01,2013-02-12 00:39:00,
2013-02-11 19:44:00,40.7,29.3,29.84,West,278,13.6,20.6,64,-99.99,,,-99.99,VWS V14.01,2013-02-12 00:44:00,
2013-02-11 19:49:00,40.0,28.7,29.84,WNW,301,17.2,18.6,64,-99.99,,,-99.99,VWS V14.01,2013-02-12 00:49:00,
2013-02-11 19:54:00,39.4,28.4,29.84,NNW,329,9.7,18.3,64,-99.99,,,-99.99,VWS V14.01,2013-02-12 00:54:00,
2013-02-11 19:59:00,39.2,28.2,29.85,West,281,9.3,17.1,64,-99.99,,,-99.99,VWS V14.01,2013-02-12 00:59:00,
2013-02-11 20:04:00,39.0,28.4,29.85,NW,326,9.8,9.8,66,-99.99,,,-99.99,VWS V14.01,2013-02-12 01:04:00,
2013-02-11 20:09:00,38.9,28.2,29.85,West,264,5.5,10.0,65,-99.99,,,-99.99,VWS V14.01,2013-02-12 01:09:00,
2013-02-11 20:14:00,39.0,28.3,29.85,North,7,7.6,11.2,65,-99.99,,,-99.99,VWS V14.01,2013-02-12 01:14:00,
2013-02-11 20:19:00,38.8,28.0,29.85,WNW,298,5.5,16.5,65,-99.99,,,-99.99,VWS V14.01,2013-02-12 01:19:00,
2013-02-11 20:24:00,38.8,27.8,29.84,West,267,7.3,15.1,64,-99.99,,,-99.99,VWS V14.01,2013-02-12 01:24:00,
2013-02-11 20:29:00,38.6,27.2,29.84,WNW,302,4.5,14.2,63,-99.99,,,-99.99,VWS V14.01,2013-02-12 01:29:00,
2013-02-11 20:34:00,38.6,27.5,29.85,North,356,3.4,11.4,64,-99.99,,,-99.99,VWS V14.01,2013-02-12 01:34:00,
2013-02-11 20:39:00,38.3,27.2,29.85,NNW,336,0.0,11.4,64,-99.99,,,-99.99,VWS V14.01,2013-02-12 01:39:00,
2013-02-11 20:44:00,38.3,27.5,29.85,North,359,5.7,14.0,65,-99.99,,,-99.99,VWS V14.01,2013-02-12 01:44:00,
2013-02-11 20:49:00,38.1,27.0,29.85,NW,314,10.8,10.8,64,-99.99,,,-99.99,VWS V14.01,2013-02-12 01:49:00,
2013-02-11 20:54:00,38.2,27.4,29.85,WNW,297,0.0,6.5,65,-99.99,,,-99.99,VWS V14.01,2013-02-12 01:54:00,
2013-02-11 20:59:00,38.0,27.0,29.86,NW,309,11.5,12.6,64,-99.99,,,-99.99,VWS V14.01,2013-02-12 01:59:00,
2013-02-11 21:04:00,38.0,27.0,29.86,WSW,242,6.6,8.3,64,-99.99,,,-99.99,VWS V14.01,2013-02-12 02:04:00,
2013-02-11 21:09:00,38.1,27.2,29.86,NW,305,0.0,0.0,64,-99.99,,,-99.99,VWS V14.01,2013-02-12 02:09:00,
2013-02-11 21:14:00,37.9,26.9,29.86,WSW,257,9.6,10.7,64,-99.99,,,-99.99,VWS V14.01,2013-02-12 02:14:00,
2013-02-11 21:19:00,37.9,27.0,29.86,NW,318,4.8,7.6,64,-99.99,,,-99.99,VWS V14.01,2013-02-12 02:19:00,
2013-02-11 21:24:00,37.9,27.1,29.86,SSW,202,0.0,10.7,65,-99.99,,,-99.99,VWS V14.01,2013-02-12 02:24:00,
2013-02-11 21:29:00,38.0,27.2,29.87,West,278,6.8,6.8,65,-99.99,,,-99.99,VWS V14.01,2013-02-12 02:29:00,
2013-02-11 21:34:00,37.9,27.0,29.86,WSW,239,0.0,4.5,65,-99.99,,,-99.99,VWS V14.01,2013-02-12 02:34:00,
2013-02-11 21:39:00,37.9,27.1,29.86,SW,225,5.1,9.8,65,-99.99,,,-99.99,VWS V14.01,2013-02-12 02:39:00,
2013-02-11 21:44:00,37.9,27.0,29.86,WNW,284,0.0,0.0,65,-99.99,,,-99.99,VWS V14.01,2013-02-12 02:44:00,
2013-02-11 21:49:00,37.7,26.9,29.86,WSW,255,0.0,6.4,65,-99.99,,,-99.99,VWS V14.01,2013-02-12 02:49:00,
2013-02-11 21:54:00,37.8,27.1,29.86,West,259,5.0,7.0,65,-99.99,,,-99.99,VWS V14.01,2013-02-12 02:54:00,
2013-02-11 21:59:00,37.8,27.0,29.86,West,259,0.0,5.0,65,-99.99,,,-99.99,VWS V14.01,2013-02-12 02:59:00,
2013-02-11 22:04:00,37.8,27.2,29.86,NW,315,0.0,0.0,65,-99.99,,,-99.99,VWS V14.01,2013-02-12 03:04:00,
2013-02-11 22:09:00,37.7,27.2,29.86,West,277,12.4,12.4,66,-99.99,,,-99.99,VWS V14.01,2013-02-12 03:09:00,
2013-02-11 22:14:00,37.6,27.0,29.86,NW,323,3.2,7.0,65,-99.99,,,-99.99,VWS V14.01,2013-02-12 03:14:00,
2013-02-11 22:19:00,37.6,27.1,29.86,NW,305,0.0,5.3,65,-99.99,,,-99.99,VWS V14.01,2013-02-12 03:19:00,
2013-02-11 22:24:00,37.5,27.0,29.86,NW,321,4.7,8.1,65,-99.99,,,-99.99,VWS V14.01,2013-02-12 03:24:00,
2013-02-11 22:29:00,37.5,26.7,29.86,WNW,288,5.3,8.9,65,-99.99,,,-99.99,VWS V14.01,2013-02-12 03:29:00,
2013-02-11 22:34:00,37.7,27.0,29.86,NW,322,0.0,4.7,65,-99.99,,,-99.99,VWS V14.01,2013-02-12 03:34:00,
2013-02-11 22:39:00,37.7,27.0,29.87,WSW,250,4.8,7.7,65,-99.99,,,-99.99,VWS V14.01,2013-02-12 03:39:00,
2013-02-11 22:44:00,37.7,26.9,29.86,WNW,300,5.9,10.9,65,-99.99,,,-99.99,VWS V14.01,2013-02-12 03:44:00,
2013-02-11 22:49:00,37.7,27.0,29.86,WNW,285,7.5,14.3,65,-99.99,,,-99.99,VWS V14.01,2013-02-12 03:49:00,
2013-02-11 22:54:00,37.6,27.0,29.87,WNW,283,6.8,10.7,65,-99.99,,,-99.99,VWS V14.01,2013-02-12 03:54:00,
2013-02-11 22:59:00,37.6,27.0,29.87,SW,215,5.2,7.1,65,-99.99,,,-99.99,VWS V14.01,2013-02-12 03:59:00,
2013-02-11 23:04:00,37.5,27.0,29.87,West,278,6.8,11.9,66,-99.99,,,-99.99,VWS V14.01,2013-02-12 04:04:00,
2013-02-11 23:09:00,37.4,27.1,29.87,WNW,290,0.0,9.3,66,-99.99,,,-99.99,VWS V14.01,2013-02-12 04:09:00,
2013-02-11 23:14:00,37.3,26.9,29.87,NW,322,6.5,8.7,66,-99.99,,,-99.99,VWS V14.01,2013-02-12 04:14:00,